createdAt,value
2022-08-08T00:01:00.753Z,5.40
2022-08-08T00:03:42.183Z,5.25
2022-08-08T00:06:28.214Z,7.25
2022-08-08T00:09:22.092Z,6.00
2022-08-08T00:12:07.456Z,5.60
2022-08-08T00:14:57.569Z,5.75
2022-08-08T00:18:02.459Z,5.00
2022-08-08T00:20:37.013Z,6.50
2022-08-08T00:23:07.872Z,5.00
2022-08-08T00:25:46.188Z,4.00
2022-08-08T00:28:34.313Z,5.00
2022-08-08T00:32:21.073Z,5.00
2022-08-08T00:34:24.447Z,6.00
2022-08-08T00:37:03.366Z,5.00
2022-08-08T00:41:12.531Z,6.00
2022-08-08T00:42:48.389Z,5.00
2022-08-08T00:45:29.338Z,5.20
2022-08-08T00:48:04.959Z,6.00
2022-08-08T00:50:36.133Z,5.00
2022-08-08T00:53:13.908Z,4.80
2022-08-08T00:55:54.830Z,4.25
2022-08-08T00:58:36.503Z,6.40
2022-08-08T01:01:08.940Z,4.00
2022-08-08T01:04:02.711Z,6.00
2022-08-08T01:06:48.138Z,5.40
2022-08-08T01:09:35.656Z,5.50
2022-08-08T01:12:13.279Z,5.00
2022-08-08T01:14:54.778Z,6.00
2022-08-08T01:17:51.405Z,5.00
2022-08-08T01:20:31.899Z,6.00
2022-08-08T01:24:05.308Z,7.00
2022-08-08T01:26:11.208Z,5.00
2022-08-08T01:28:59.093Z,6.00
2022-08-08T01:32:06.621Z,5.00
2022-08-08T01:34:59.238Z,5.60
2022-08-08T01:37:57.214Z,5.40
2022-08-08T01:40:34.569Z,6.00
2022-08-08T01:43:12.021Z,5.80
2022-08-08T01:45:41.733Z,5.50
2022-08-08T01:48:30.667Z,7.40
2022-08-08T01:51:30.240Z,7.00
2022-08-08T01:55:19.407Z,6.25
2022-08-08T01:57:17.351Z,5.00
2022-08-08T02:00:07.459Z,7.00
2022-08-08T02:02:51.780Z,6.50
2022-08-08T02:05:33.927Z,5.60
2022-08-08T02:08:22.333Z,7.00
2022-08-08T02:11:07.686Z,7.50
2022-08-08T02:13:56.529Z,6.00
2022-08-08T02:16:23.825Z,6.40
2022-08-08T02:19:01.162Z,5.00
2022-08-08T02:22:05.235Z,6.80
2022-08-08T02:24:44.195Z,5.00
2022-08-08T02:27:19.120Z,7.80
2022-08-08T02:30:04.383Z,6.00
2022-08-08T02:32:49.382Z,6.40
2022-08-08T02:35:29.321Z,8.00
2022-08-08T02:38:25.119Z,5.00
2022-08-08T02:41:59.609Z,7.00
2022-08-08T02:44:56.926Z,7.00
2022-08-08T02:47:40.508Z,6.80
2022-08-08T02:50:17.996Z,8.00
2022-08-08T02:53:04.797Z,7.00
2022-08-08T02:55:37.375Z,6.25
2022-08-08T02:58:14.895Z,6.00
2022-08-08T03:01:00.293Z,6.60
2022-08-08T03:05:02.895Z,7.75
2022-08-08T03:06:42.751Z,5.60
2022-08-08T03:09:28.674Z,5.00
2022-08-08T03:12:05.993Z,5.00
2022-08-08T03:15:58.344Z,5.20
2022-08-08T03:17:43.570Z,8.00
2022-08-08T03:20:26.576Z,6.80
2022-08-08T03:22:56.289Z,8.00
2022-08-08T03:25:35.584Z,7.75
2022-08-08T03:28:05.714Z,6.80
2022-08-08T03:30:32.327Z,7.00
2022-08-08T03:33:55.320Z,7.00
2022-08-08T03:36:10.593Z,5.50
2022-08-08T03:38:57.106Z,7.00
2022-08-08T03:42:27.103Z,7.25
2022-08-08T03:44:25.288Z,6.00
2022-08-08T03:46:52.400Z,7.00
2022-08-08T03:49:57.219Z,5.33
2022-08-08T03:52:13.209Z,7.00
2022-08-08T03:55:02.444Z,7.00
2022-08-08T03:58:31.401Z,6.75
2022-08-08T04:00:18.311Z,5.40
2022-08-08T04:02:54.672Z,8.00
2022-08-08T04:05:28.472Z,7.00
2022-08-08T04:07:56.109Z,5.00
2022-08-08T04:10:24.949Z,9.00
2022-08-08T04:12:51.680Z,6.60
2022-08-08T04:15:18.314Z,6.80
2022-08-08T04:17:59.044Z,6.25
2022-08-08T04:20:28.476Z,7.00
2022-08-08T04:22:57.128Z,6.60
2022-08-08T04:25:29.738Z,7.00
2022-08-08T04:28:10.696Z,6.40
2022-08-08T04:30:44.281Z,7.00
2022-08-08T04:33:11.683Z,6.00
2022-08-08T04:35:50.721Z,5.50
2022-08-08T04:38:21.148Z,6.00
2022-08-08T04:40:53.858Z,5.50
2022-08-08T04:43:22.236Z,7.00
2022-08-08T04:45:57.773Z,5.60
2022-08-08T04:48:24.501Z,6.00
2022-08-08T04:50:53.065Z,7.20
2022-08-08T04:54:27.390Z,7.00
2022-08-08T04:56:06.880Z,7.00
2022-08-08T04:58:33.665Z,5.75
2022-08-08T05:01:00.265Z,6.60
2022-08-08T05:04:11.443Z,6.75
2022-08-08T05:06:25.817Z,6.60
2022-08-08T05:08:56.024Z,7.00
2022-08-08T05:11:29.159Z,7.00
2022-08-08T05:14:05.930Z,7.00
2022-08-08T05:16:55.525Z,4.40
2022-08-08T05:20:12.405Z,6.00
2022-08-08T05:22:08.385Z,7.50
2022-08-08T05:24:37.421Z,4.00
2022-08-08T05:27:04.727Z,6.75
2022-08-08T05:29:31.961Z,6.00
2022-08-08T05:32:06.155Z,7.00
2022-08-08T05:35:05.045Z,10.00
2022-08-08T05:37:49.154Z,8.50
2022-08-08T05:40:21.642Z,9.00
2022-08-08T05:42:58.586Z,7.00
2022-08-08T05:45:41.471Z,7.00
2022-08-08T05:48:11.503Z,7.00
2022-08-08T05:50:42.053Z,8.00
2022-08-08T05:53:54.220Z,6.00
2022-08-08T05:56:08.265Z,6.00
2022-08-08T05:58:53.671Z,6.20
2022-08-08T06:01:56.632Z,7.00
2022-08-08T06:04:22.538Z,6.50
2022-08-08T06:06:51.555Z,7.00
2022-08-08T06:09:58.726Z,6.00
2022-08-08T06:12:09.252Z,6.00
2022-08-08T06:14:47.738Z,6.00
2022-08-08T06:17:19.655Z,5.60
2022-08-08T06:19:48.018Z,7.00
2022-08-08T06:25:01.306Z,6.00
2022-08-08T06:27:46.158Z,4.60
2022-08-08T06:30:20.170Z,6.00
2022-08-08T06:33:01.318Z,6.00
2022-08-08T06:36:04.306Z,6.00
2022-08-08T06:38:18.926Z,6.00
2022-08-08T06:40:53.757Z,7.50
2022-08-08T06:43:30.749Z,6.00
2022-08-08T06:46:01.918Z,5.40
2022-08-08T06:48:29.545Z,6.00
2022-08-08T06:50:57.653Z,6.00
2022-08-08T06:53:25.532Z,6.80
2022-08-08T06:56:07.167Z,6.00
2022-08-08T06:58:34.103Z,6.00
2022-08-08T07:01:02.024Z,6.00
2022-08-08T07:04:41.444Z,7.00
2022-08-08T07:06:43.693Z,6.25
2022-08-08T07:09:18.014Z,6.00
2022-08-08T07:11:52.103Z,7.60
2022-08-08T07:14:21.585Z,6.40
2022-08-08T07:16:58.647Z,6.00
2022-08-08T07:19:35.227Z,7.60
2022-08-08T07:22:12.068Z,6.75
2022-08-08T07:24:46.502Z,8.00
2022-08-08T07:27:16.566Z,7.40
2022-08-08T07:30:00.831Z,7.00
2022-08-08T07:32:31.845Z,8.00
2022-08-08T07:35:01.389Z,8.80
2022-08-08T07:37:49.497Z,8.60
2022-08-08T07:40:28.746Z,6.00
2022-08-08T07:42:57.273Z,8.50
2022-08-08T07:45:26.765Z,7.80
2022-08-08T07:48:02.792Z,9.00
2022-08-08T07:50:35.024Z,7.40
2022-08-08T07:53:23.909Z,8.75
2022-08-08T07:56:01.737Z,7.00
2022-08-08T07:58:50.101Z,8.50
2022-08-08T08:01:21.416Z,8.20
2022-08-08T08:04:03.250Z,6.00
2022-08-08T08:06:32.778Z,8.00
2022-08-08T08:09:23.884Z,6.80
2022-08-08T08:11:53.928Z,8.00
2022-08-08T08:14:34.893Z,6.50
2022-08-08T08:17:01.619Z,9.00
2022-08-08T08:19:31.908Z,8.75
2022-08-08T08:22:12.413Z,9.60
2022-08-08T08:24:46.265Z,8.80
2022-08-08T08:27:13.575Z,8.20
2022-08-08T08:29:40.281Z,8.40
2022-08-08T08:32:09.290Z,8.60
2022-08-08T08:34:43.419Z,9.75
2022-08-08T08:37:20.598Z,9.00
2022-08-08T08:40:01.242Z,8.80
2022-08-08T08:42:35.301Z,8.20
2022-08-08T08:45:20.739Z,9.00
2022-08-08T08:47:54.269Z,8.00
2022-08-08T08:50:33.496Z,8.75
2022-08-08T08:53:54.722Z,9.60
2022-08-08T08:56:02.495Z,9.00
2022-08-08T08:58:55.540Z,9.50
2022-08-08T09:01:24.907Z,9.00
2022-08-08T09:03:51.719Z,9.60
2022-08-08T09:06:28.762Z,10.25
2022-08-08T09:09:07.088Z,9.00
2022-08-08T09:11:47.654Z,10.80
2022-08-08T09:14:23.113Z,10.00
2022-08-08T09:16:53.043Z,9.00
2022-08-08T09:21:53.617Z,10.00
2022-08-08T09:22:06.859Z,9.00
2022-08-08T09:24:35.991Z,7.40
2022-08-08T09:27:09.165Z,8.20
2022-08-08T09:29:52.728Z,9.00
2022-08-08T09:32:31.991Z,11.00
2022-08-08T09:35:05.202Z,8.00
2022-08-08T09:38:00.780Z,9.00
2022-08-08T09:40:44.114Z,9.00
2022-08-08T09:43:16.888Z,10.00
2022-08-08T09:46:03.107Z,9.75
2022-08-08T09:48:36.662Z,8.20
2022-08-08T09:51:09.340Z,10.00
2022-08-08T09:54:01.334Z,10.00
2022-08-08T09:56:33.996Z,9.00
2022-08-08T09:59:42.883Z,8.20
2022-08-08T10:02:12.991Z,9.00
2022-08-08T10:04:47.769Z,7.20
2022-08-08T10:07:15.907Z,9.00
2022-08-08T10:10:00.602Z,9.80
2022-08-08T10:12:38.392Z,9.00
2022-08-08T10:15:20.681Z,8.75
2022-08-08T10:18:07.780Z,9.00
2022-08-08T10:20:58.026Z,8.00
2022-08-08T10:23:42.998Z,9.00
2022-08-08T10:26:29.966Z,9.50
2022-08-08T10:29:01.896Z,9.20
2022-08-08T10:31:50.539Z,10.00
2022-08-08T10:34:21.043Z,8.00
2022-08-08T10:36:48.316Z,11.00
2022-08-08T10:39:19.154Z,11.00
2022-08-08T10:42:16.286Z,10.00
2022-08-08T10:44:45.813Z,10.00
2022-08-08T10:47:13.612Z,11.60
2022-08-08T10:50:00.768Z,10.00
2022-08-08T10:52:37.821Z,10.00
2022-08-08T10:55:13.881Z,10.60
2022-08-08T10:57:50.208Z,8.00
2022-08-08T11:00:27.135Z,11.50
2022-08-08T11:02:55.395Z,10.00
2022-08-08T11:05:23.003Z,11.00
2022-08-08T11:08:30.673Z,10.75
2022-08-08T11:10:36.567Z,11.40
2022-08-08T11:16:00.359Z,9.40
2022-08-08T11:18:30.079Z,11.60
2022-08-08T11:20:57.492Z,9.80
2022-08-08T11:23:31.213Z,10.20
2022-08-08T11:25:59.036Z,10.00
2022-08-08T11:28:29.501Z,10.00
2022-08-08T11:31:00.005Z,11.00
2022-08-08T11:33:51.249Z,9.80
2022-08-08T11:36:15.306Z,10.00
2022-08-08T11:38:54.188Z,10.00
2022-08-08T11:41:22.715Z,10.20
2022-08-08T11:43:49.683Z,8.60
2022-08-08T11:46:17.889Z,9.25
2022-08-08T11:48:47.231Z,9.40
2022-08-08T11:51:30.294Z,11.00
2022-08-08T11:54:04.269Z,10.25
2022-08-08T11:56:35.540Z,11.80
2022-08-08T11:59:09.977Z,10.20
2022-08-08T12:01:37.538Z,12.00
2022-08-08T12:04:05.150Z,10.00
2022-08-08T12:06:34.828Z,11.25
2022-08-08T12:09:09.415Z,10.40
2022-08-08T12:11:45.836Z,9.50
2022-08-08T12:14:22.028Z,8.40
2022-08-08T12:16:52.594Z,11.20
2022-08-08T12:19:37.564Z,11.00
2022-08-08T12:22:13.879Z,11.50
2022-08-08T12:24:51.433Z,10.50
2022-08-08T12:27:20.994Z,10.40
2022-08-08T12:29:57.441Z,10.00
2022-08-08T12:32:24.193Z,9.75
2022-08-08T12:35:04.541Z,11.00
2022-08-08T12:37:43.121Z,9.00
2022-08-08T12:40:22.991Z,10.00
2022-08-08T12:42:51.746Z,11.00
2022-08-08T12:45:58.017Z,10.00
2022-08-08T12:48:35.954Z,11.50
2022-08-08T12:51:03.801Z,12.00
2022-08-08T12:53:36.440Z,13.00
2022-08-08T12:56:17.678Z,12.20
2022-08-08T12:58:54.441Z,13.00
2022-08-08T13:01:24.238Z,13.00
2022-08-08T13:04:11.759Z,12.60
2022-08-08T13:07:00.959Z,12.00
2022-08-08T13:10:04.472Z,11.40
2022-08-08T13:12:34.782Z,11.60
2022-08-08T13:15:09.047Z,11.00
2022-08-08T13:18:09.013Z,11.50
2022-08-08T13:20:27.162Z,11.00
2022-08-08T13:23:26.891Z,12.60
2022-08-08T13:25:43.617Z,12.00
2022-08-08T13:28:17.604Z,11.40
2022-08-08T13:30:45.441Z,12.00
2022-08-08T13:33:18.393Z,11.00
2022-08-08T13:35:50.022Z,12.00
2022-08-08T13:38:18.385Z,11.00
2022-08-08T13:40:46.026Z,11.00
2022-08-08T13:43:16.472Z,11.25
2022-08-08T13:45:43.793Z,10.00
2022-08-08T13:48:15.378Z,12.75
2022-08-08T13:50:49.238Z,11.00
2022-08-08T13:53:33.793Z,8.40
2022-08-08T13:56:06.017Z,9.60
2022-08-08T13:58:33.138Z,11.00
2022-08-08T14:01:10.623Z,10.20
2022-08-08T14:03:53.848Z,11.00
2022-08-08T14:06:33.073Z,9.80
2022-08-08T14:09:18.408Z,10.60
2022-08-08T14:11:48.012Z,10.80
2022-08-08T14:14:20.525Z,9.20
2022-08-08T14:16:51.188Z,11.60
2022-08-08T14:19:28.049Z,10.00
2022-08-08T14:22:13.340Z,8.80
2022-08-08T14:24:52.620Z,11.00
2022-08-08T14:27:27.195Z,8.40
2022-08-08T14:29:57.094Z,10.25
2022-08-08T14:32:29.997Z,11.60
2022-08-08T14:35:04.434Z,9.50
2022-08-08T14:37:43.095Z,9.50
2022-08-08T14:40:23.998Z,9.00
2022-08-08T14:42:57.024Z,9.00
2022-08-08T14:46:01.263Z,10.25
2022-08-08T14:48:27.504Z,10.40
2022-08-08T14:51:06.847Z,9.20
2022-08-08T14:53:56.179Z,8.50
2022-08-08T14:56:24.787Z,8.60
2022-08-08T14:58:51.577Z,9.00
2022-08-08T15:01:23.803Z,8.00
2022-08-08T15:03:53.686Z,9.50
2022-08-08T15:06:35.725Z,9.00
2022-08-08T15:09:04.576Z,7.50
2022-08-08T15:11:36.505Z,10.00
2022-08-08T15:14:13.658Z,11.00
2022-08-08T15:16:42.611Z,10.00
2022-08-08T15:19:11.532Z,10.80
2022-08-08T15:21:42.887Z,10.00
2022-08-08T15:24:13.744Z,9.25
2022-08-08T15:26:41.813Z,9.50
2022-08-08T15:29:08.544Z,9.00
2022-08-08T15:32:02.860Z,8.00
2022-08-08T15:34:31.501Z,9.00
2022-08-08T15:37:02.044Z,10.00
2022-08-08T15:39:31.738Z,10.00
2022-08-08T15:42:05.713Z,10.40
2022-08-08T15:44:33.021Z,9.00
2022-08-08T15:46:59.771Z,9.00
2022-08-08T15:49:26.683Z,8.00
2022-08-08T15:51:56.331Z,10.00
2022-08-08T15:54:38.515Z,10.00
2022-08-08T15:57:07.799Z,8.40
2022-08-08T16:00:06.656Z,9.50
2022-08-08T16:02:30.906Z,8.40
2022-08-08T16:04:58.597Z,10.00
2022-08-08T16:07:51.912Z,8.00
2022-08-08T16:13:09.455Z,10.50
2022-08-08T16:13:26.426Z,9.00
2022-08-08T16:15:57.516Z,9.00
2022-08-08T16:18:26.354Z,8.00
2022-08-08T16:20:53.010Z,10.00
2022-08-08T16:23:19.651Z,8.25
2022-08-08T16:25:54.454Z,10.00
2022-08-08T16:28:36.311Z,7.50
2022-08-08T16:31:07.684Z,8.00
2022-08-08T16:33:39.445Z,8.40
2022-08-08T16:36:09.147Z,9.00
2022-08-08T16:38:36.530Z,9.40
2022-08-08T16:41:11.821Z,9.00
2022-08-08T16:43:50.698Z,9.00
2022-08-08T16:46:37.543Z,9.00
2022-08-08T16:49:05.717Z,10.00
2022-08-08T16:55:01.398Z,10.00
2022-08-08T16:55:04.083Z,8.20
2022-08-08T16:57:23.578Z,6.80
2022-08-08T16:59:58.115Z,9.40
2022-08-08T17:02:38.031Z,8.80
2022-08-08T17:05:05.872Z,9.00
2022-08-08T17:07:32.564Z,9.00
2022-08-08T17:09:59.176Z,9.00
2022-08-08T17:12:28.413Z,7.60
2022-08-08T17:14:55.696Z,8.75
2022-08-08T17:18:01.593Z,11.60
2022-08-08T17:20:09.613Z,9.60
2022-08-08T17:22:42.347Z,7.00
2022-08-08T17:25:11.637Z,8.00
2022-08-08T17:27:46.108Z,6.60
2022-08-08T17:30:27.521Z,8.40
2022-08-08T17:34:35.138Z,8.00
2022-08-08T17:35:52.564Z,8.00
2022-08-08T17:38:22.997Z,9.00
2022-08-08T17:40:49.641Z,9.00
2022-08-08T17:43:21.155Z,9.00
2022-08-08T17:45:50.795Z,8.00
2022-08-08T17:48:29.319Z,10.40
2022-08-08T17:50:57.921Z,9.00
2022-08-08T17:53:43.281Z,11.00
2022-08-08T17:56:10.480Z,10.00
2022-08-08T17:58:38.930Z,8.50
2022-08-08T18:01:10.890Z,8.40
2022-08-08T18:03:37.814Z,9.00
2022-08-08T18:06:20.015Z,8.50
2022-08-08T18:08:50.717Z,9.00
2022-08-08T18:11:22.058Z,9.60
2022-08-08T18:13:48.670Z,10.80
2022-08-08T18:16:17.287Z,10.00
2022-08-08T18:18:52.694Z,9.00
2022-08-08T18:21:35.300Z,9.00
2022-08-08T18:24:17.540Z,9.00
2022-08-08T18:26:53.781Z,10.50
2022-08-08T18:29:26.127Z,11.20
2022-08-08T18:31:59.139Z,10.60
2022-08-08T18:34:27.448Z,9.00
2022-08-08T18:36:55.782Z,10.00
2022-08-08T18:39:28.433Z,9.00
2022-08-08T18:41:58.289Z,10.00
2022-08-08T18:44:30.096Z,9.00
2022-08-08T18:47:00.056Z,10.80
2022-08-08T18:49:32.360Z,10.00
2022-08-08T18:52:08.171Z,10.00
2022-08-08T18:54:34.917Z,9.00
2022-08-08T18:57:04.040Z,10.60
2022-08-08T18:59:38.527Z,10.60
2022-08-08T19:02:25.151Z,10.00
2022-08-08T19:04:54.286Z,9.40
2022-08-08T19:07:23.315Z,11.00
2022-08-08T19:10:13.595Z,12.00
2022-08-08T19:12:38.180Z,9.50
2022-08-08T19:15:10.969Z,9.00
2022-08-08T19:17:48.200Z,10.20
2022-08-08T19:20:25.479Z,10.50
2022-08-08T19:22:53.024Z,9.00
2022-08-08T19:26:01.701Z,9.50
2022-08-08T19:28:17.909Z,10.00
2022-08-08T19:30:51.473Z,10.00
2022-08-08T19:33:51.755Z,10.00
2022-08-08T19:36:18.303Z,9.00
2022-08-08T19:38:54.482Z,10.00
2022-08-08T19:41:21.537Z,10.25
2022-08-08T19:44:02.219Z,10.00
2022-08-08T19:46:33.604Z,9.50
2022-08-08T19:49:00.915Z,11.25
2022-08-08T19:51:34.661Z,10.00
2022-08-08T19:54:08.055Z,9.00
2022-08-08T19:56:39.762Z,12.00
2022-08-08T19:59:08.693Z,10.00
2022-08-08T20:02:01.043Z,10.00
2022-08-08T20:04:22.315Z,9.00
2022-08-08T20:06:50.878Z,10.75
2022-08-08T20:09:22.466Z,12.00
2022-08-08T20:11:50.038Z,11.80
2022-08-08T20:14:33.511Z,10.50
2022-08-08T20:17:02.545Z,10.60
2022-08-08T20:19:34.671Z,12.00
2022-08-08T20:22:13.474Z,10.60
2022-08-08T20:24:53.005Z,9.00
2022-08-08T20:27:21.295Z,12.25
2022-08-08T20:29:55.754Z,11.00
2022-08-08T20:32:28.417Z,11.00
2022-08-08T20:35:01.452Z,12.20
2022-08-08T20:37:46.880Z,10.20
2022-08-08T20:40:16.762Z,11.60
2022-08-08T20:42:50.068Z,11.00
2022-08-08T20:45:54.645Z,11.80
2022-08-08T20:48:08.389Z,11.00
2022-08-08T20:50:35.453Z,12.00
2022-08-08T20:53:03.940Z,14.00
2022-08-08T20:55:35.963Z,14.00
2022-08-08T20:58:14.008Z,11.00
2022-08-08T21:00:49.628Z,13.00
2022-08-08T21:03:17.014Z,13.00
2022-08-08T21:05:49.407Z,12.80
2022-08-08T21:08:37.233Z,14.00
2022-08-08T21:11:12.560Z,13.50
2022-08-08T21:13:40.799Z,12.25
2022-08-08T21:16:20.333Z,13.00
2022-08-08T21:18:57.377Z,13.00
2022-08-08T21:21:39.689Z,13.00
2022-08-08T21:24:22.360Z,11.25
2022-08-08T21:26:55.059Z,13.00
2022-08-08T21:30:05.692Z,13.20
2022-08-08T21:32:19.198Z,15.00
2022-08-08T21:34:56.896Z,14.00
2022-08-08T21:37:55.329Z,15.00
2022-08-08T21:40:30.848Z,12.50
2022-08-08T21:42:58.425Z,14.00
2022-08-08T21:48:02.573Z,11.75
2022-08-08T21:48:29.007Z,12.20
2022-08-08T21:51:10.125Z,12.00
2022-08-08T21:54:31.173Z,12.50
2022-08-08T21:56:31.336Z,11.00
2022-08-08T21:59:04.091Z,12.40
2022-08-08T22:01:40.796Z,13.50
2022-08-08T22:04:10.428Z,13.00
2022-08-08T22:06:39.625Z,11.00
2022-08-08T22:09:09.412Z,12.00
2022-08-08T22:11:51.124Z,12.00
2022-08-08T22:14:23.907Z,11.20
2022-08-08T22:16:53.895Z,12.00
2022-08-08T22:19:23.726Z,12.00
2022-08-08T22:21:50.924Z,12.25
2022-08-08T22:24:17.579Z,12.80
2022-08-08T22:27:02.295Z,11.00
2022-08-08T22:29:59.429Z,12.75
2022-08-08T22:32:18.263Z,14.00
2022-08-08T22:34:51.079Z,12.20
2022-08-08T22:37:27.871Z,12.20
2022-08-08T22:40:06.554Z,12.20
2022-08-08T22:42:34.437Z,13.00
2022-08-08T22:45:02.156Z,14.00
2022-08-08T22:47:38.277Z,12.20
2022-08-08T22:50:20.792Z,12.60
2022-08-08T22:53:22.487Z,13.20
2022-08-08T22:55:58.196Z,14.00
2022-08-08T22:58:26.997Z,14.50
2022-08-08T23:00:55.304Z,13.40
2022-08-08T23:03:22.043Z,12.60
2022-08-08T23:05:50.027Z,13.20
2022-08-08T23:08:19.990Z,16.00
2022-08-08T23:10:52.624Z,12.50
2022-08-08T23:13:20.629Z,12.75
2022-08-08T23:16:40.949Z,14.60
2022-08-08T23:18:35.309Z,14.00
2022-08-08T23:21:04.745Z,14.00
2022-08-08T23:23:32.475Z,13.80
2022-08-08T23:26:15.616Z,12.75
2022-08-08T23:28:44.243Z,14.00
2022-08-08T23:31:10.865Z,13.80
2022-08-08T23:34:16.785Z,13.60
2022-08-08T23:36:26.355Z,14.00
2022-08-08T23:38:53.141Z,13.00
2022-08-08T23:41:24.604Z,13.50
2022-08-08T23:43:54.300Z,15.00
2022-08-08T23:49:04.915Z,15.00
2022-08-08T23:49:15.174Z,15.00
2022-08-08T23:52:06.964Z,14.80
2022-08-08T23:54:43.759Z,15.00
2022-08-08T23:57:27.700Z,14.40
